createdAt,value
2023-04-10T00:00:20.907Z,8.66
2023-04-10T00:02:56.637Z,8.66
2023-04-10T00:05:23.327Z,8.65
2023-04-10T00:07:49.774Z,8.63
2023-04-10T00:10:16.797Z,8.62
2023-04-10T00:12:43.279Z,8.56
2023-04-10T00:15:10.203Z,8.52
2023-04-10T00:17:36.821Z,8.52
2023-04-10T00:20:05.010Z,8.44
2023-04-10T00:22:31.493Z,8.52
2023-04-10T00:24:57.940Z,8.48
2023-04-10T00:27:24.404Z,8.45
2023-04-10T00:29:50.950Z,8.40
2023-04-10T00:32:17.548Z,8.39
2023-04-10T00:34:44.100Z,8.30
2023-04-10T00:37:10.638Z,8.35
2023-04-10T00:39:37.070Z,8.34
2023-04-10T00:42:04.123Z,8.32
2023-04-10T00:44:30.827Z,8.30
2023-04-10T00:46:57.305Z,8.25
2023-04-10T00:49:23.993Z,8.21
2023-04-10T00:51:50.641Z,8.18
2023-04-10T00:54:17.225Z,8.16
2023-04-10T00:56:44.807Z,8.06
2023-04-10T00:59:11.360Z,8.07
2023-04-10T01:01:38.059Z,8.00
2023-04-10T01:04:05.164Z,8.01
2023-04-10T01:06:58.195Z,7.96
2023-04-10T01:09:24.559Z,7.97
2023-04-10T01:12:00.440Z,7.94
2023-04-10T01:14:50.894Z,7.91
2023-04-10T01:17:43.829Z,7.86
2023-04-10T01:20:13.104Z,7.87
2023-04-10T01:23:08.621Z,7.79
2023-04-10T01:25:42.191Z,7.80
2023-04-10T01:28:46.210Z,7.91
2023-04-10T01:31:18.460Z,7.87
2023-04-10T01:33:50.862Z,7.86
2023-04-10T01:36:24.645Z,7.87
2023-04-10T01:38:53.498Z,7.93
2023-04-10T01:41:22.074Z,7.92
2023-04-10T01:43:51.944Z,7.92
2023-04-10T01:46:21.684Z,8.01
2023-04-10T01:48:49.977Z,8.02
2023-04-10T01:51:17.892Z,8.09
2023-04-10T01:53:47.628Z,8.05
2023-04-10T01:56:15.541Z,8.05
2023-04-10T01:58:42.535Z,8.10
2023-04-10T02:01:19.214Z,8.07
2023-04-10T02:03:53.619Z,8.07
2023-04-10T02:06:35.739Z,8.05
2023-04-10T02:09:02.177Z,8.08
2023-04-10T02:11:38.381Z,8.08
2023-04-10T02:14:11.024Z,8.10
2023-04-10T02:16:39.140Z,8.12
2023-04-10T02:19:06.829Z,8.12
2023-04-10T02:21:34.483Z,8.18
2023-04-10T02:24:01.118Z,8.21
2023-04-10T02:26:27.600Z,8.32
2023-04-10T02:28:54.043Z,8.42
2023-04-10T02:31:20.671Z,8.46
2023-04-10T02:33:47.501Z,8.50
2023-04-10T02:36:14.264Z,8.56
2023-04-10T02:38:40.871Z,8.67
2023-04-10T02:41:07.347Z,8.81
2023-04-10T02:43:33.862Z,8.98
2023-04-10T02:46:00.337Z,9.05
2023-04-10T02:48:26.823Z,9.11
2023-04-10T02:50:57.898Z,9.15
2023-04-10T02:53:25.964Z,9.25
2023-04-10T02:55:54.123Z,9.38
2023-04-10T02:58:21.995Z,9.45
2023-04-10T03:00:50.775Z,9.57
2023-04-10T03:03:19.653Z,9.65
2023-04-10T03:05:49.881Z,9.69
2023-04-10T03:08:17.439Z,9.74
2023-04-10T03:10:48.699Z,9.83
2023-04-10T03:13:15.731Z,9.90
2023-04-10T03:15:42.399Z,9.95
2023-04-10T03:18:11.908Z,9.97
2023-04-10T03:20:38.644Z,10.07
2023-04-10T03:23:08.241Z,10.13
2023-04-10T03:25:35.454Z,10.13
2023-04-10T03:28:02.045Z,10.21
2023-04-10T03:30:28.719Z,10.20
2023-04-10T03:32:55.414Z,10.18
2023-04-10T03:35:22.214Z,10.21
2023-04-10T03:37:48.679Z,10.25
2023-04-10T03:40:15.253Z,10.29
2023-04-10T03:42:41.756Z,10.29
2023-04-10T03:45:08.722Z,10.29
2023-04-10T03:47:35.386Z,10.37
2023-04-10T03:50:02.181Z,10.36
2023-04-10T03:52:28.688Z,10.33
2023-04-10T03:54:55.489Z,10.34
2023-04-10T03:57:22.027Z,10.39
2023-04-10T03:59:48.454Z,10.38
2023-04-10T04:02:15.362Z,10.34
2023-04-10T04:04:42.045Z,10.35
2023-04-10T04:07:09.032Z,10.40
2023-04-10T04:09:35.899Z,10.39
2023-04-10T04:12:02.381Z,10.41
2023-04-10T04:14:28.888Z,10.44
2023-04-10T04:16:55.496Z,10.43
2023-04-10T04:19:22.020Z,10.44
2023-04-10T04:21:48.566Z,10.44
2023-04-10T04:24:15.299Z,10.47
2023-04-10T04:26:41.800Z,10.44
2023-04-10T04:29:08.257Z,10.50
2023-04-10T04:31:34.876Z,10.57
2023-04-10T04:34:01.527Z,10.56
2023-04-10T04:36:28.205Z,10.62
2023-04-10T04:38:55.272Z,10.62
2023-04-10T04:41:22.103Z,10.63
2023-04-10T04:43:49.459Z,10.59
2023-04-10T04:46:16.046Z,10.63
2023-04-10T04:48:42.585Z,10.57
2023-04-10T04:51:09.149Z,10.53
2023-04-10T04:53:35.983Z,10.45
2023-04-10T04:56:03.130Z,10.49
2023-04-10T04:58:29.646Z,10.48
2023-04-10T05:00:56.118Z,10.44
2023-04-10T05:03:23.032Z,10.41
2023-04-10T05:05:49.804Z,10.37
2023-04-10T05:08:16.361Z,10.31
2023-04-10T05:10:42.831Z,10.22
2023-04-10T05:13:09.347Z,10.12
2023-04-10T05:15:36.084Z,10.07
2023-04-10T05:18:02.728Z,9.97
2023-04-10T05:20:29.281Z,9.93
2023-04-10T05:22:55.773Z,9.89
2023-04-10T05:25:22.398Z,9.81
2023-04-10T05:27:48.880Z,9.69
2023-04-10T05:30:15.644Z,9.60
2023-04-10T05:32:42.216Z,9.52
2023-04-10T05:35:09.109Z,9.43
2023-04-10T05:37:35.718Z,9.33
2023-04-10T05:40:02.212Z,9.33
2023-04-10T05:42:28.720Z,9.29
2023-04-10T05:44:55.232Z,9.25
2023-04-10T05:47:21.725Z,9.21
2023-04-10T05:49:48.259Z,9.22
2023-04-10T05:52:14.746Z,9.25
2023-04-10T05:54:41.225Z,9.30
2023-04-10T05:57:07.702Z,9.35
2023-04-10T05:59:34.181Z,9.38
2023-04-10T06:02:01.007Z,9.44
2023-04-10T06:04:27.692Z,9.50
2023-04-10T06:06:54.307Z,9.54
2023-04-10T06:09:20.897Z,9.62
2023-04-10T06:11:47.368Z,9.66
2023-04-10T06:14:13.813Z,9.78
2023-04-10T06:16:40.365Z,9.84
2023-04-10T06:19:06.833Z,9.96
2023-04-10T06:21:33.350Z,10.03
2023-04-10T06:23:59.887Z,10.15
2023-04-10T06:26:26.516Z,10.26
2023-04-10T06:28:53.263Z,10.32
2023-04-10T06:31:23.944Z,10.41
2023-04-10T06:33:51.062Z,10.54
2023-04-10T06:36:17.848Z,10.60
2023-04-10T06:38:44.351Z,10.72
2023-04-10T06:41:11.509Z,10.91
2023-04-10T06:43:39.355Z,11.01
2023-04-10T06:46:06.296Z,11.17
2023-04-10T06:48:33.585Z,11.35
2023-04-10T06:51:02.890Z,11.54
2023-04-10T06:53:29.737Z,11.65
2023-04-10T06:55:56.937Z,11.78
2023-04-10T06:58:24.472Z,12.03
2023-04-10T07:00:51.157Z,12.24
2023-04-10T07:03:17.813Z,12.47
2023-04-10T07:05:44.373Z,12.59
2023-04-10T07:08:11.229Z,12.81
2023-04-10T07:10:37.866Z,13.00
2023-04-10T07:13:04.558Z,13.17
2023-04-10T07:15:31.034Z,13.25
2023-04-10T07:17:57.556Z,13.36
2023-04-10T07:20:24.160Z,13.47
2023-04-10T07:22:50.728Z,13.62
2023-04-10T07:25:18.459Z,13.62
2023-04-10T07:27:45.011Z,13.70
2023-04-10T07:30:13.517Z,13.71
2023-04-10T07:32:42.200Z,13.85
2023-04-10T07:35:09.464Z,13.98
2023-04-10T07:37:36.032Z,13.98
2023-04-10T07:40:03.120Z,14.05
2023-04-10T07:42:30.394Z,14.03
2023-04-10T07:44:57.238Z,14.21
2023-04-10T07:47:23.811Z,14.20
2023-04-10T07:49:50.502Z,14.33
2023-04-10T07:52:16.986Z,14.40
2023-04-10T07:54:43.463Z,14.29
2023-04-10T07:57:09.974Z,14.39
2023-04-10T07:59:36.545Z,14.48
2023-04-10T08:02:03.101Z,14.50
2023-04-10T08:04:31.184Z,14.47
2023-04-10T08:06:57.931Z,14.55
2023-04-10T08:09:24.399Z,14.57
2023-04-10T08:11:51.084Z,14.59
2023-04-10T08:14:18.555Z,14.62
2023-04-10T08:16:45.289Z,14.79
2023-04-10T08:19:11.885Z,14.89
2023-04-10T08:21:38.527Z,14.99
2023-04-10T08:24:05.447Z,15.11
2023-04-10T08:26:31.937Z,15.25
2023-04-10T08:29:00.757Z,15.38
2023-04-10T08:31:29.030Z,15.44
2023-04-10T08:33:56.065Z,15.59
2023-04-10T08:36:22.808Z,15.63
2023-04-10T08:38:49.549Z,15.74
2023-04-10T08:41:18.686Z,15.83
2023-04-10T08:43:46.386Z,15.95
2023-04-10T08:46:14.737Z,16.01
2023-04-10T08:48:59.992Z,16.16
2023-04-10T08:51:32.216Z,16.33
2023-04-10T08:54:10.781Z,16.35
2023-04-10T08:56:40.239Z,16.43
2023-04-10T08:59:07.802Z,16.71
2023-04-10T09:01:35.857Z,16.77
2023-04-10T09:04:02.599Z,16.85
2023-04-10T09:06:29.268Z,16.79
2023-04-10T09:08:55.946Z,16.95
2023-04-10T09:11:22.468Z,16.72
2023-04-10T09:13:48.912Z,16.83
2023-04-10T09:16:15.600Z,16.99
2023-04-10T09:18:46.189Z,17.03
2023-04-10T09:21:19.490Z,17.11
2023-04-10T09:23:47.434Z,17.36
2023-04-10T09:26:30.360Z,17.46
2023-04-10T09:28:59.152Z,17.45
2023-04-10T09:31:36.846Z,17.52
2023-04-10T09:34:12.490Z,17.32
2023-04-10T09:36:41.694Z,17.49
2023-04-10T09:39:10.310Z,17.43
2023-04-10T09:41:56.040Z,17.22
2023-04-10T09:44:35.216Z,17.48
2023-04-10T09:47:13.924Z,17.42
2023-04-10T09:49:52.781Z,17.32
2023-04-10T09:52:32.316Z,17.37
2023-04-10T09:55:01.062Z,17.47
2023-04-10T09:57:30.962Z,17.64
2023-04-10T10:00:00.902Z,17.50
2023-04-10T10:02:31.672Z,17.62
2023-04-10T10:05:02.369Z,17.56
2023-04-10T10:07:29.757Z,17.69
2023-04-10T10:09:57.899Z,17.80
2023-04-10T10:12:29.695Z,17.83
2023-04-10T10:15:11.632Z,17.74
2023-04-10T10:17:45.576Z,17.81
2023-04-10T10:20:15.864Z,17.96
2023-04-10T10:22:42.815Z,18.07
2023-04-10T10:25:10.047Z,17.95
2023-04-10T10:27:38.672Z,18.00
2023-04-10T10:30:20.247Z,17.91
2023-04-10T10:32:54.733Z,17.88
2023-04-10T10:35:22.983Z,17.76
2023-04-10T10:37:50.571Z,17.92
2023-04-10T10:40:27.291Z,18.12
2023-04-10T10:42:56.914Z,18.37
2023-04-10T10:45:51.051Z,18.28
2023-04-10T10:48:17.721Z,18.44
2023-04-10T10:50:59.181Z,18.49
2023-04-10T10:53:40.589Z,18.43
2023-04-10T10:56:19.394Z,18.57
2023-04-10T10:58:50.964Z,18.60
2023-04-10T11:01:18.246Z,18.87
2023-04-10T11:03:45.503Z,18.99
2023-04-10T11:06:17.082Z,18.94
2023-04-10T11:08:48.018Z,18.97
2023-04-10T11:11:25.446Z,19.19
2023-04-10T11:14:00.680Z,19.48
2023-04-10T11:16:31.455Z,19.48
2023-04-10T11:19:12.974Z,19.40
2023-04-10T11:22:08.023Z,19.61
2023-04-10T11:24:59.990Z,19.65
2023-04-10T11:27:50.053Z,19.60
2023-04-10T11:30:27.206Z,19.75
2023-04-10T11:32:55.266Z,19.94
2023-04-10T11:35:22.121Z,20.05
2023-04-10T11:37:48.634Z,20.25
2023-04-10T11:40:16.532Z,20.23
2023-04-10T11:42:43.421Z,20.32
2023-04-10T11:45:27.215Z,19.92
2023-04-10T11:47:54.983Z,19.90
2023-04-10T11:50:21.715Z,19.68
2023-04-10T11:52:51.652Z,19.75
2023-04-10T11:55:19.062Z,19.86
2023-04-10T11:57:45.760Z,19.90
2023-04-10T12:00:12.847Z,20.07
2023-04-10T12:02:55.032Z,20.23
2023-04-10T12:05:21.817Z,20.40
2023-04-10T12:07:50.379Z,20.38
2023-04-10T12:10:16.945Z,20.44
2023-04-10T12:12:43.515Z,20.42
2023-04-10T12:15:27.268Z,20.30
2023-04-10T12:17:55.128Z,20.25
2023-04-10T12:20:26.432Z,20.44
2023-04-10T12:22:56.303Z,20.53
2023-04-10T12:25:22.992Z,20.59
2023-04-10T12:27:53.108Z,20.53
2023-04-10T12:30:19.689Z,20.43
2023-04-10T12:32:53.429Z,20.58
2023-04-10T12:35:20.385Z,20.60
2023-04-10T12:37:55.703Z,20.50
2023-04-10T12:40:26.554Z,20.74
2023-04-10T12:42:55.835Z,20.97
2023-04-10T12:45:40.975Z,21.26
2023-04-10T12:48:07.506Z,21.40
2023-04-10T12:50:33.999Z,21.34
2023-04-10T12:53:11.606Z,21.48
2023-04-10T12:55:38.695Z,21.08
2023-04-10T12:58:20.611Z,21.69
2023-04-10T13:00:48.257Z,22.16
2023-04-10T13:03:14.940Z,22.68
2023-04-10T13:05:41.559Z,22.93
2023-04-10T13:08:08.125Z,23.15
2023-04-10T13:10:37.187Z,23.09
2023-04-10T13:13:04.825Z,22.22
2023-04-10T13:15:34.510Z,22.05
2023-04-10T13:18:01.968Z,21.71
2023-04-10T13:20:29.823Z,21.59
2023-04-10T13:22:56.250Z,21.24
2023-04-10T13:25:23.103Z,21.25
2023-04-10T13:27:49.589Z,21.02
2023-04-10T13:30:16.193Z,20.65
2023-04-10T13:32:42.790Z,20.77
2023-04-10T13:35:09.655Z,20.34
2023-04-10T13:37:36.689Z,20.61
2023-04-10T13:40:04.178Z,20.60
2023-04-10T13:42:31.002Z,20.74
2023-04-10T13:44:57.461Z,21.03
2023-04-10T13:47:23.914Z,21.11
2023-04-10T13:49:50.444Z,21.11
2023-04-10T13:52:16.928Z,20.87
2023-04-10T13:54:43.471Z,20.93
2023-04-10T13:57:09.988Z,20.75
2023-04-10T13:59:36.456Z,20.74
2023-04-10T14:02:02.971Z,20.56
2023-04-10T14:04:29.446Z,20.55
2023-04-10T14:06:58.697Z,20.42
2023-04-10T14:09:25.345Z,20.54
2023-04-10T14:11:51.835Z,20.42
2023-04-10T14:14:18.482Z,20.43
2023-04-10T14:16:45.014Z,20.26
2023-04-10T14:19:11.577Z,20.01
2023-04-10T14:21:40.433Z,20.16
2023-04-10T14:24:06.917Z,19.90
2023-04-10T14:26:33.403Z,20.11
2023-04-10T14:28:59.923Z,19.98
2023-04-10T14:31:28.408Z,19.75
2023-04-10T14:33:56.133Z,19.74
2023-04-10T14:36:22.916Z,19.69
2023-04-10T14:38:49.404Z,19.62
2023-04-10T14:41:16.380Z,19.68
2023-04-10T14:43:44.346Z,19.68
2023-04-10T14:46:12.535Z,19.61
2023-04-10T14:48:39.268Z,19.63
2023-04-10T14:51:12.662Z,19.47
2023-04-10T15:59:35.962Z,18.93
2023-04-10T16:02:02.942Z,19.03
2023-04-10T16:04:30.628Z,19.09
2023-04-10T16:06:57.266Z,19.18
2023-04-10T16:09:26.390Z,19.17
2023-04-10T16:11:54.366Z,19.34
2023-04-10T16:14:21.020Z,19.08
2023-04-10T16:16:47.551Z,19.16
2023-04-10T16:19:14.110Z,19.31
2023-04-10T16:21:40.640Z,19.12
2023-04-10T16:24:07.368Z,19.15
2023-04-10T16:26:33.854Z,19.24
2023-04-10T16:29:00.319Z,19.37
2023-04-10T16:31:26.889Z,19.10
2023-04-10T16:33:57.257Z,19.27
2023-04-10T16:36:23.713Z,19.23
2023-04-10T16:38:50.419Z,19.13
2023-04-10T16:41:20.894Z,18.97
2023-04-10T16:43:47.690Z,18.81
2023-04-10T16:46:14.280Z,18.92
2023-04-10T16:48:40.846Z,18.92
2023-04-10T16:51:14.541Z,18.71
2023-04-10T16:53:41.080Z,18.64
2023-04-10T16:56:07.820Z,18.66
2023-04-10T16:58:35.997Z,18.64
2023-04-10T17:01:20.665Z,18.56
2023-04-10T17:03:48.281Z,18.28
2023-04-10T17:06:21.352Z,18.09
2023-04-10T17:08:47.830Z,17.89
2023-04-10T17:11:14.432Z,17.60
2023-04-10T17:13:41.412Z,17.32
2023-04-10T17:16:09.217Z,16.98
2023-04-10T17:18:35.741Z,16.91
2023-04-10T17:21:02.234Z,16.85
2023-04-10T17:23:29.293Z,16.68
2023-04-10T17:25:55.757Z,16.68
2023-04-10T17:28:22.278Z,16.38
2023-04-10T17:30:48.779Z,16.30
2023-04-10T17:33:15.437Z,16.23
2023-04-10T17:35:42.257Z,15.95
2023-04-10T17:38:08.934Z,15.82
2023-04-10T17:40:37.383Z,15.81
2023-04-10T17:43:04.218Z,15.65
2023-04-10T17:45:30.698Z,15.64
2023-04-10T17:47:57.236Z,15.68
2023-04-10T17:50:23.838Z,15.56
2023-04-10T17:52:50.426Z,15.54
2023-04-10T17:55:21.199Z,15.44
2023-04-10T17:57:48.907Z,15.44
2023-04-10T18:00:16.932Z,15.34
2023-04-10T18:02:48.580Z,15.39
2023-04-10T18:05:15.360Z,15.34
2023-04-10T18:07:41.882Z,15.27
2023-04-10T18:10:11.180Z,15.18
2023-04-10T18:12:37.990Z,15.25
2023-04-10T18:15:05.211Z,15.30
2023-04-10T18:17:31.864Z,15.27
2023-04-10T18:19:58.392Z,15.22
2023-04-10T18:22:24.862Z,15.16
2023-04-10T18:24:51.384Z,15.19
2023-04-10T18:27:17.863Z,15.01
2023-04-10T18:29:45.532Z,14.90
2023-04-10T18:32:12.329Z,14.71
2023-04-10T18:34:39.410Z,14.80
2023-04-10T18:37:07.488Z,14.60
2023-04-10T18:39:38.084Z,14.53
2023-04-10T18:42:07.370Z,14.49
2023-04-10T18:44:34.822Z,14.34
2023-04-10T18:47:04.296Z,14.27
2023-04-10T18:49:31.670Z,14.19
2023-04-10T18:51:58.140Z,14.08
2023-04-10T18:54:26.983Z,14.07
2023-04-10T18:56:53.466Z,13.99
2023-04-10T18:59:20.111Z,14.05
2023-04-10T19:01:46.626Z,13.99
2023-04-10T19:04:13.254Z,13.91
2023-04-10T19:06:41.040Z,13.87
2023-04-10T19:09:08.725Z,13.87
2023-04-10T19:11:35.267Z,13.96
2023-04-10T19:14:01.816Z,13.79
2023-04-10T19:16:28.437Z,13.81
2023-04-10T19:18:55.363Z,13.84
2023-04-10T19:21:22.289Z,13.88
2023-04-10T19:23:49.306Z,13.75
2023-04-10T19:26:16.029Z,13.77
2023-04-10T19:28:42.545Z,13.79
2023-04-10T19:31:09.138Z,13.83
2023-04-10T19:33:35.697Z,13.75
2023-04-10T19:36:02.258Z,13.51
2023-04-10T19:38:32.812Z,13.22
2023-04-10T19:40:59.333Z,13.04
2023-04-10T19:43:25.909Z,13.00
2023-04-10T19:45:53.328Z,12.86
2023-04-10T19:48:19.852Z,12.82
2023-04-10T19:50:46.481Z,12.87
2023-04-10T19:53:15.528Z,12.74
2023-04-10T19:55:44.316Z,12.73
2023-04-10T19:58:20.707Z,12.73
2023-04-10T20:01:04.934Z,12.68
2023-04-10T20:03:32.729Z,12.66
2023-04-10T20:06:00.691Z,12.64
2023-04-10T20:08:27.372Z,12.68
2023-04-10T20:10:54.424Z,13.36
2023-04-10T20:13:22.332Z,12.46
2023-04-10T20:15:49.582Z,12.46
2023-04-10T20:18:16.677Z,12.94
2023-04-10T20:20:44.280Z,12.41
2023-04-10T20:23:11.939Z,12.32
2023-04-10T20:25:38.840Z,12.28
2023-04-10T20:28:05.297Z,12.23
2023-04-10T20:30:31.777Z,12.22
2023-04-10T20:32:58.269Z,12.21
2023-04-10T20:35:25.255Z,12.12
2023-04-10T20:37:51.823Z,12.12
2023-04-10T20:40:18.380Z,12.14
2023-04-10T20:42:44.822Z,12.18
2023-04-10T20:45:11.814Z,12.17
2023-04-10T20:47:38.356Z,12.08
2023-04-10T20:50:05.329Z,12.08
2023-04-10T20:52:31.794Z,12.10
2023-04-10T20:54:58.225Z,12.02
2023-04-10T20:57:24.812Z,12.01
2023-04-10T20:59:51.272Z,12.00
2023-04-10T21:02:18.061Z,11.84
2023-04-10T21:04:44.684Z,11.88
2023-04-10T21:07:11.156Z,11.77
2023-04-10T21:09:37.613Z,11.75
2023-04-10T21:12:04.242Z,11.61
2023-04-10T21:14:30.723Z,11.64
2023-04-10T21:16:57.285Z,11.61
2023-04-10T21:19:23.830Z,11.52
2023-04-10T21:21:50.282Z,11.62
2023-04-10T21:24:16.742Z,11.55
2023-04-10T21:26:43.193Z,11.47
2023-04-10T21:29:09.699Z,11.42
2023-04-10T21:31:36.177Z,11.46
2023-04-10T21:34:02.664Z,11.47
2023-04-10T21:36:29.234Z,11.39
2023-04-10T21:38:55.959Z,11.35
2023-04-10T21:41:22.613Z,11.42
2023-04-10T21:43:49.328Z,11.39
2023-04-10T21:46:16.003Z,11.41
2023-04-10T21:48:42.549Z,11.31
2023-04-10T21:51:12.545Z,11.31
2023-04-10T21:53:39.057Z,11.38
2023-04-10T21:56:05.934Z,11.41
2023-04-10T21:58:32.424Z,11.34
2023-04-10T22:00:58.953Z,11.36
2023-04-10T22:03:27.113Z,11.28
2023-04-10T22:05:53.796Z,11.31
2023-04-10T22:08:20.391Z,11.30
2023-04-10T22:10:48.055Z,11.26
2023-04-10T22:13:27.356Z,11.20
2023-04-10T22:15:56.616Z,11.28
2023-04-10T22:18:23.108Z,11.30
2023-04-10T22:20:49.567Z,11.27
2023-04-10T22:23:16.026Z,11.20
2023-04-10T22:25:42.498Z,11.20
2023-04-10T22:28:08.981Z,11.21
2023-04-10T22:30:35.587Z,11.26
2023-04-10T22:33:02.177Z,11.20
2023-04-10T22:35:28.967Z,11.18
2023-04-10T22:37:56.924Z,11.24
2023-04-10T22:40:23.525Z,11.13
2023-04-10T22:42:50.565Z,11.18
2023-04-10T22:45:17.132Z,11.16
2023-04-10T22:47:43.597Z,11.17
2023-04-10T22:50:10.332Z,11.15
2023-04-10T22:52:37.199Z,11.12
2023-04-10T22:55:07.913Z,11.01
2023-04-10T22:57:34.483Z,11.08
2023-04-10T23:00:01.077Z,11.02
2023-04-10T23:02:27.788Z,10.98
2023-04-10T23:04:54.559Z,10.92
2023-04-10T23:07:21.035Z,10.98
2023-04-10T23:09:47.497Z,10.98
2023-04-10T23:12:13.996Z,10.93
2023-04-10T23:14:40.507Z,10.95
2023-04-10T23:17:07.041Z,11.00
2023-04-10T23:19:33.515Z,10.86
2023-04-10T23:21:59.967Z,10.89
2023-04-10T23:24:26.400Z,10.97
2023-04-10T23:26:53.151Z,10.98
2023-04-10T23:29:19.661Z,11.07
2023-04-10T23:31:46.275Z,11.05
2023-04-10T23:34:12.818Z,11.09
2023-04-10T23:36:39.344Z,11.07
2023-04-10T23:39:05.776Z,11.11
2023-04-10T23:41:33.085Z,11.14
2023-04-10T23:43:59.650Z,11.08
2023-04-10T23:46:26.115Z,11.07
2023-04-10T23:48:54.509Z,11.14
2023-04-10T23:51:21.188Z,11.11
2023-04-10T23:53:47.725Z,11.05
2023-04-10T23:56:14.252Z,11.16
2023-04-10T23:58:40.762Z,11.16
